Latest Weather Observations for Merimbula

IDN60801

Issued at 7:03 pm EST Saturday 30 July 2016 (issued every 30 minutes, with the page automatically refreshed every 10 minutes)

About weather observations | Map of weather stations | Latest weather observations for NSW | Other Formats
Station Details ID: 069147 Name: MERIMBULA AIRPORT AWS Lat: -36.91 Lon: 149.90 Height: 1.5 m
Data from the previous 72 hours. | See also: Recent months at Merimbula
Date/Time
EST
Temp
°C
App
Temp
°C
Dew
Point
°C
Rel
Hum
%
Delta-T
°C
Wind Press
QNH
hPa
Press
MSL
hPa
Rain since
9am
mm
Dir  Spd
km/h
Gust
km/h
Spd
kts
Gust
kts
30/07:00pm 7.8 6.7 5.3 84 1.1 CALM 0 0 0 0 1018.4 1018.4 0.0
30/06:30pm 8.5 7.6 6.1 85 1.1 CALM 0 0 0 0 1018.3 1018.3 0.0
30/06:00pm 9.8 8.8 5.8 76 1.8 CALM 0 0 0 0 1018.2 1018.2 0.0
30/05:30pm 11.9 10.6 5.8 66 2.8 NNE 2 7 1 4 1018.1 1018.1 0.0
30/05:00pm 12.8 10.1 5.7 62 3.3 NNE 9 15 5 8 1018.1 1018.1 0.0
30/04:30pm 13.9 10.9 6.0 59 3.8 NE 11 17 6 9 1018.1 1018.1 0.0
30/04:00pm 14.5 11.1 6.1 57 4.0 ENE 13 20 7 11 1018.3 1018.3 0.0
30/03:30pm 15.1 12.2 6.7 57 4.1 E 11 17 6 9 1018.8 1018.8 0.0
30/03:00pm 15.0 11.8 6.8 58 4.0 ENE 13 20 7 11 1019.1 1019.1 0.0
30/02:30pm 15.3 12.1 6.8 57 4.2 E 13 20 7 11 1019.2 1019.2 0.0
30/02:00pm 15.3 12.0 6.6 56 4.2 E 13 20 7 11 1019.1 1019.1 0.0
30/01:30pm 15.6 12.8 6.9 56 4.3 E 11 20 6 11 1019.4 1019.4 0.0
30/01:00pm 15.9 12.5 6.1 52 4.7 E 13 19 7 10 1019.8 1019.8 0.0
30/12:30pm 15.9 12.2 6.1 52 4.7 ENE 15 20 8 11 1020.5 1020.5 0.0
30/12:00pm 16.1 12.7 6.0 51 4.9 ENE 13 20 7 11 1021.0 1021.0 0.0
30/11:30am 16.4 14.0 4.4 45 5.6 SSW 6 13 3 7 1021.4 1021.4 0.0
30/11:00am 16.1 13.2 4.5 46 5.4 NW 9 20 5 11 1021.9 1021.9 0.0
30/10:30am 15.3 12.5 5.2 51 4.8 NNW 9 15 5 8 1022.2 1022.2 0.0
30/10:00am 14.8 11.8 6.1 56 4.2 NW 11 13 6 7 1022.4 1022.4 0.0
30/09:30am 13.3 9.9 5.7 60 3.6 NW 13 17 7 9 1022.5 1022.5 0.0
30/09:00am 11.5 9.0 6.4 71 2.4 NW 9 15 5 8 1022.6 1022.6 0.0
30/08:30am 9.0 6.1 6.3 83 1.2 NW 11 13 6 7 1022.6 1022.6 0.0
30/08:00am 7.0 4.0 5.9 93 0.5 NW 11 15 6 8 1022.3 1022.3 0.0
30/07:30am 4.6 2.1 3.7 94 0.4 WNW 6 9 3 5 1022.3 1022.3 0.0
30/07:00am 4.5 1.4 3.6 94 0.4 WNW 9 13 5 7 1022.1 1022.1 0.0
30/06:30am 3.8 1.0 2.9 94 0.4 WSW 7 11 4 6 1021.8 1021.8 0.0
30/06:00am 3.7 2.1 2.7 93 0.4 CALM 0 0 0 0 1021.8 1021.8 0.0
30/05:30am 3.7 2.1 2.4 91 0.5 CALM 0 0 0 0 1021.4 1021.4 0.0
30/05:00am 4.5 1.9 3.2 91 0.5 W 6 9 3 5 1021.2 1021.2 0.0
30/04:30am 5.3 2.3 4.0 91 0.5 WNW 9 11 5 6 1020.8 1020.8 0.0
30/04:00am 5.0 3.2 3.2 88 0.7 W 2 9 1 5 1020.7 1020.7 0.0
30/03:30am 5.9 3.0 4.5 91 0.6 W 9 13 5 7 1020.6 1020.6 0.0
30/03:00am 5.2 3.9 3.9 91 0.5 CALM 0 6 0 3 1020.5 1020.5 0.0
30/02:30am 5.4 2.7 3.9 90 0.6 WSW 7 7 4 4 1020.6 1020.6 0.0
30/02:00am 5.6 2.9 3.9 89 0.7 WSW 7 11 4 6 1020.8 1020.8 0.0
30/01:30am 5.2 3.7 2.9 85 0.9 CALM 0 0 0 0 1020.4 1020.4 0.0
30/01:00am 6.9 4.5 4.2 83 1.2 NW 6 9 3 5 1020.5 1020.5 0.0
30/12:30am 7.1 5.1 4.6 84 1.1 NE 4 7 2 4 1020.3 1020.3 0.0
30/12:00am 8.5 6.1 5.3 80 1.4 NW 7 11 4 6 1020.4 1020.4 0.0
 
Date/Time
EST
Temp
°C
App
Temp
°C
Dew
Point
°C
Rel
Hum
%
Delta-T
°C
Wind Press
QNH
hPa
Press
MSL
hPa
Rain since
9am
mm
Dir  Spd
km/h
Gust
km/h
Spd
kts
Gust
kts
29/11:30pm 8.7 5.9 5.1 78 1.6 NNW 9 11 5 6 1020.5 1020.5 0.0
29/11:00pm 9.4 6.8 4.4 71 2.2 SSW 7 11 4 6 1020.5 1020.5 0.0
29/10:30pm 9.7 6.0 4.5 70 2.3 SSW 13 17 7 9 1020.3 1020.3 0.0
29/10:00pm 10.0 7.0 4.2 67 2.6 W 9 13 5 7 1019.7 1019.7 0.0
29/09:30pm 10.3 7.1 4.9 69 2.4 W 11 17 6 9 1019.5 1019.5 0.0
29/09:00pm 7.8 6.5 4.2 78 1.6 CALM 0 0 0 0 1019.3 1019.3 0.0
29/08:30pm 10.5 7.9 5.9 73 2.1 NW 9 13 5 7 1018.9 1018.9 0.0
29/08:00pm 10.7 7.8 6.5 75 2.0 WNW 11 13 6 7 1018.8 1018.8 0.0
29/07:30pm 11.4 8.0 5.9 69 2.6 NW 13 15 7 8 1018.7 1018.7 0.0
29/07:00pm 12.4 10.1 7.3 71 2.5 NW 9 13 5 7 1018.2 1018.2 0.0
29/06:30pm 12.3 9.8 6.4 67 2.8 WNW 9 11 5 6 1017.9 1017.9 0.0
29/06:00pm 11.4 9.7 7.7 78 1.8 NW 6 9 3 5 1017.5 1017.5 0.0
29/05:30pm 12.4 11.3 8.5 77 1.9 NW 4 9 2 5 1017.2 1017.2 0.0
29/05:00pm 13.0 12.5 7.7 70 2.6 CALM 0 0 0 0 1016.7 1016.7 0.0
29/04:30pm 14.5 13.9 7.5 63 3.5 CALM 0 0 0 0 1016.6 1016.6 0.0
29/04:00pm 15.9 13.9 6.9 55 4.4 NNW 7 13 4 7 1016.4 1016.4 0.0
29/03:30pm 17.5 14.1 4.1 41 6.3 WSW 11 15 6 8 1016.3 1016.3 0.0
29/03:00pm 16.9 15.1 5.5 47 5.5 WNW 4 9 2 5 1016.3 1016.3 0.0
29/02:30pm 17.1 14.4 5.4 46 5.6 NE 9 13 5 7 1016.3 1016.3 0.0
29/02:00pm 17.5 14.8 5.4 45 5.8 NE 9 13 5 7 1016.4 1016.4 0.0
29/01:30pm 17.1 14.3 5.1 45 5.7 NE 9 13 5 7 1016.6 1016.6 0.0
29/01:00pm 17.9 15.3 4.1 40 6.5 NE 7 11 4 6 1017.1 1017.1 0.0
29/12:30pm 17.5 15.2 2.7 37 6.8 NNW 4 9 2 5 1017.5 1017.5 0.0
29/12:00pm 17.2 14.5 3.5 40 6.3 S 7 13 4 7 1018.2 1018.2 0.0
29/11:30am 16.2 12.8 1.9 38 6.4 WNW 9 15 5 8 1018.6 1018.6 0.0
29/11:00am 16.2 12.8 1.9 38 6.3 NW 9 11 5 6 1019.3 1019.3 0.0
29/10:30am 15.3 12.1 2.8 43 5.6 W 9 11 5 6 1019.9 1019.9 0.0
29/10:00am 13.8 10.6 3.0 48 4.8 NNW 9 13 5 7 1019.9 1019.9 0.0
29/09:30am 12.1 8.9 2.8 53 4.1 NNW 9 15 5 8 1020.4 1020.4 0.0
29/09:00am 10.3 6.7 3.1 61 3.1 WNW 11 13 6 7 1020.5 1020.5 0.0
29/08:30am 7.1 5.4 4.1 81 1.3 W 2 9 1 5 1020.4 1020.4 0.0
29/08:00am 5.1 2.3 3.3 88 0.7 NW 7 11 4 6 1020.4 1020.4 0.0
29/07:30am 3.6 0.5 1.3 85 0.9 W 7 11 4 6 1020.2 1020.2 0.0
29/07:00am 3.0 1.2 1.5 90 0.6 CALM 0 0 0 0 1020.3 1020.3 0.0
29/06:30am 3.6 0.2 2.1 90 0.6 NW 9 13 5 7 1020.3 1020.3 0.0
29/06:00am 3.3 0.8 1.8 90 0.6 WNW 4 13 2 7 1020.1 1020.1 0.0
29/05:30am 3.2 1.4 1.4 88 0.7 CALM 0 0 0 0 1020.1 1020.1 0.0
29/05:00am 4.0 1.7 2.7 91 0.5 NW 4 13 2 7 1019.9 1019.9 0.0
29/04:30am 3.3 -0.2 1.3 87 0.8 SW 9 11 5 6 1020.1 1020.1 0.0
29/04:00am 3.7 0.2 1.4 85 0.9 WNW 9 13 5 7 1020.1 1020.1 0.0
29/03:30am 3.3 -0.1 1.8 90 0.6 W 9 13 5 7 1020.1 1020.1 0.0
29/03:00am 2.6 0.8 1.1 90 0.6 CALM 0 0 0 0 1020.3 1020.3 0.0
29/02:30am 3.4 1.7 1.9 90 0.6 CALM 0 0 0 0 1020.7 1020.7 0.0
29/02:00am 4.4 2.9 2.9 90 0.6 CALM 0 0 0 0 1020.8 1020.8 0.0
29/01:30am 3.9 0.6 2.3 89 0.6 WSW 9 11 5 6 1020.8 1020.8 0.0
29/01:00am 3.9 1.0 2.6 91 0.5 W 7 9 4 5 1021.0 1021.0 0.0
29/12:30am 3.9 1.0 2.7 92 0.5 NW 7 9 4 5 1021.0 1021.0 0.0
29/12:00am 3.5 1.9 2.2 91 0.5 CALM 0 0 0 0 1021.1 1021.1 0.0
 
Date/Time
EST
Temp
°C
App
Temp
°C
Dew
Point
°C
Rel
Hum
%
Delta-T
°C
Wind Press
QNH
hPa
Press
MSL
hPa
Rain since
9am
mm
Dir  Spd
km/h
Gust
km/h
Spd
kts
Gust
kts
28/11:30pm 4.4 1.7 2.9 90 0.6 NNW 6 9 3 5 1021.2 1021.2 0.0
28/11:00pm 4.9 2.3 3.1 88 0.7 NW 6 9 3 5 1021.1 1021.1 0.0
28/10:30pm 5.9 2.9 4.1 88 0.8 NW 9 13 5 7 1021.0 1021.0 0.0
28/10:00pm 5.8 3.2 4.3 90 0.6 NW 7 9 4 5 1021.2 1021.2 0.0
28/09:30pm 5.1 3.3 3.6 90 0.6 WNW 2 9 1 5 1021.2 1021.2 0.0
28/09:00pm 4.8 3.2 2.5 85 0.9 CALM 0 0 0 0 1021.1 1021.1 0.0
28/08:30pm 5.5 3.9 2.7 82 1.1 CALM 0 0 0 0 1021.1 1021.1 0.0
28/08:00pm 6.6 5.3 4.1 84 1.1 CALM 0 0 0 0 1020.8 1020.8 0.0
28/07:30pm 7.1 5.8 3.9 80 1.4 CALM 0 0 0 0 1020.4 1020.4 0.0
28/07:00pm 8.7 6.3 4.5 75 1.8 NNW 6 9 3 5 1020.2 1020.2 0.0
28/06:30pm 10.5 7.9 6.1 74 2.0 NW 9 13 5 7 1019.8 1019.8 0.0
28/06:00pm 10.4 7.2 5.2 70 2.4 NW 11 13 6 7 1019.5 1019.5 0.0
28/05:30pm 11.3 8.6 5.8 69 2.6 NW 9 13 5 7 1019.3 1019.3 0.0
28/05:00pm 13.3 12.2 5.2 58 3.8 CALM 0 0 0 0 1019.0 1019.0 0.0
28/04:30pm 15.1 12.5 5.9 54 4.4 NNE 9 15 5 8 1018.8 1018.8 0.0
28/04:00pm 15.8 12.6 6.8 55 4.4 NNE 13 19 7 10 1018.6 1018.6 0.0
28/03:30pm 17.2 14.6 6.1 48 5.4 SSE 9 19 5 10 1018.6 1018.6 0.0
28/03:00pm 17.3 15.3 4.6 43 6.0 E 4 11 2 6 1018.5 1018.5 0.0
28/02:30pm 17.5 14.6 4.5 42 6.2 NNE 9 15 5 8 1018.5 1018.5 0.0
28/02:00pm 19.0 14.4 1.5 31 7.9 WSW 15 24 8 13 1018.5 1018.5 0.0
28/01:30pm 18.8 14.5 1.3 31 7.8 W 13 24 7 13 1018.7 1018.7 0.0
28/01:00pm 18.5 13.1 1.5 32 7.6 W 19 28 10 15 1019.3 1019.3 0.0
28/12:30pm 18.3 13.8 2.2 34 7.3 W 15 28 8 15 1019.6 1019.6 0.0
28/12:00pm 18.2 14.2 2.9 36 7.0 WNW 13 19 7 10 1020.0 1020.0 0.0
28/11:30am 17.4 14.8 3.0 38 6.6 WNW 6 15 3 8 1020.6 1020.6 0.0
28/11:00am 16.5 13.3 2.9 40 6.2 NW 9 15 5 8 1021.1 1021.1 0.0
28/10:30am 15.2 11.9 2.4 42 5.7 NNW 9 13 5 7 1021.4 1021.4 0.0
28/10:00am 14.4 10.5 3.2 47 5.0 W 13 19 7 10 1021.3 1021.3 0.0
28/09:30am 13.2 10.2 1.8 46 4.9 W 7 11 4 6 1021.3 1021.3 0.0
28/09:00am 12.7 8.7 2.6 50 4.4 WNW 13 19 7 10 1021.3 1021.3 0.0
28/08:30am 11.6 8.0 2.9 55 3.8 SW 11 15 6 8 1021.1 1021.1 0.0
28/08:00am 10.3 6.7 2.9 60 3.2 NNW 11 15 6 8 1021.0 1021.0 0.0
28/07:30am 6.3 4.0 2.6 77 1.5 N 4 9 2 5 1020.8 1020.8 0.0
28/07:00am 6.0 4.0 2.1 76 1.6 WNW 2 9 1 5 1020.5 1020.5 0.0
28/06:30am 6.2 4.4 3.2 81 1.3 NNW 2 7 1 4 1020.1 1020.1 0.0
28/06:00am 6.6 3.5 3.4 80 1.3 NW 9 15 5 8 1019.9 1019.9 0.0
28/05:30am 7.7 4.5 2.8 71 2.1 NW 9 13 5 7 1019.6 1019.6 0.0
28/05:00am 8.0 5.4 3.1 71 2.1 NW 6 15 3 8 1019.9 1019.9 0.0
28/04:30am 10.0 6.2 1.9 57 3.4 WNW 11 19 6 10 1019.6 1019.6 0.0
28/04:00am 9.9 5.4 2.0 58 3.3 WNW 15 20 8 11 1019.3 1019.3 0.0
28/03:30am 9.7 4.9 2.6 61 3.0 WNW 17 20 9 11 1019.0 1019.0 0.0
28/03:00am 8.9 4.3 3.5 69 2.3 WNW 17 22 9 12 1018.8 1018.8 0.0
28/02:30am 7.0 3.3 4.7 85 1.0 NW 13 20 7 11 1018.7 1018.7 0.0
28/02:00am 6.3 3.3 4.1 86 0.9 NNW 9 13 5 7 1018.9 1018.9 0.0
28/01:30am 6.6 3.3 4.6 87 0.9 NW 11 15 6 8 1018.6 1018.6 0.0
28/01:00am 8.1 4.3 4.1 76 1.7 WNW 13 20 7 11 1018.3 1018.3 0.0
28/12:30am 6.9 2.8 4.2 83 1.2 WNW 15 19 8 10 1018.3 1018.3 0.0
28/12:00am 6.1 1.7 4.9 92 0.5 W 17 20 9 11 1018.3 1018.3 0.0
 
Date/Time
EST
Temp
°C
App
Temp
°C
Dew
Point
°C
Rel
Hum
%
Delta-T
°C
Wind Press
QNH
hPa
Press
MSL
hPa
Rain since
9am
mm
Dir  Spd
km/h
Gust
km/h
Spd
kts
Gust
kts
27/11:30pm 4.9 3.2 3.9 93 0.4 NW 2 13 1 7 1018.7 1018.7 0.0
27/11:00pm 5.1 3.8 3.9 92 0.5 CALM 0 0 0 0 1019.1 1019.1 0.0
27/10:30pm 5.4 2.9 3.9 90 0.6 SSW 6 9 3 5 1019.0 1019.0 0.0
27/10:00pm 5.1 3.6 3.0 86 0.9 CALM 0 0 0 0 1019.0 1019.0 0.0
27/09:30pm 6.2 3.7 4.0 86 0.9 SSW 6 11 3 6 1018.9 1018.9 0.0
27/09:00pm 7.3 4.9 5.3 87 0.9 N 7 11 4 6 1018.2 1018.2 0.0
27/08:30pm 8.2 5.3 4.8 79 1.5 SSW 9 11 5 6 1017.8 1017.8 0.0
27/08:00pm 8.2 5.7 5.0 80 1.4 SW 7 15 4 8 1017.0 1017.0 0.0
27/07:30pm 8.9 5.6 4.7 75 1.9 SSW 11 13 6 7 1016.7 1016.7 0.0

Other Formats:

Comma delimited format used in spreadsheet applications
http://www.bom.gov.au/fwo/IDN60801/IDN60801.95929.axf

JavaScript Object Notation format (JSON) in row-major order
http://www.bom.gov.au/fwo/IDN60801/IDN60801.95929.json